sensor_id;sensor_type;location;lat;lon;timestamp;pressure;altitude;pressure_sealevel;temperature;humidity
77537;BME280;67783;51.656;16.106;2023-02-28T00:00:41;103206.09;;;4.52;54.18
77537;BME280;67783;51.656;16.106;2023-02-28T00:03:49;103199.01;;;4.53;54.30
77537;BME280;67783;51.656;16.106;2023-02-28T00:06:50;103189.27;;;4.53;54.30
77537;BME280;67783;51.656;16.106;2023-02-28T00:09:58;103194.57;;;4.52;54.24
77537;BME280;67783;51.656;16.106;2023-02-28T00:13:05;103199.89;;;4.53;54.44
77537;BME280;67783;51.656;16.106;2023-02-28T00:16:09;103195.47;;;4.52;54.50
77537;BME280;67783;51.656;16.106;2023-02-28T00:19:12;103194.57;;;4.55;54.50
77537;BME280;67783;51.656;16.106;2023-02-28T00:22:16;103199.89;;;4.55;54.49
77537;BME280;67783;51.656;16.106;2023-02-28T00:25:22;103197.23;;;4.53;54.49
77537;BME280;67783;51.656;16.106;2023-02-28T00:28:25;103193.69;;;4.54;54.45
77537;BME280;67783;51.656;16.106;2023-02-28T00:31:27;103191.92;;;4.53;54.17
77537;BME280;67783;51.656;16.106;2023-02-28T00:34:29;103196.35;;;4.53;54.26
77537;BME280;67783;51.656;16.106;2023-02-28T00:37:31;103199.01;;;4.51;53.87
77537;BME280;67783;51.656;16.106;2023-02-28T00:40:40;103190.19;;;4.49;53.57
77537;BME280;67783;51.656;16.106;2023-02-28T00:43:42;103202.58;;;4.50;54.19
77537;BME280;67783;51.656;16.106;2023-02-28T00:46:44;103197.27;;;4.47;54.35
77537;BME280;67783;51.656;16.106;2023-02-28T00:49:46;103197.27;;;4.47;54.39
77537;BME280;67783;51.656;16.106;2023-02-28T00:52:48;103202.61;;;4.44;54.31
77537;BME280;67783;51.656;16.106;2023-02-28T00:55:50;103196.41;;;4.45;54.21
77537;BME280;67783;51.656;16.106;2023-02-28T00:58:52;103194.64;;;4.44;53.78
77537;BME280;67783;51.656;16.106;2023-02-28T01:01:57;103201.72;;;4.44;52.61
77537;BME280;67783;51.656;16.106;2023-02-28T01:04:59;103204.38;;;4.45;53.57
77537;BME280;67783;51.656;16.106;2023-02-28T01:08:00;103204.38;;;4.44;53.08
77537;BME280;67783;51.656;16.106;2023-02-28T01:11:09;103199.07;;;4.45;53.62
77537;BME280;67783;51.656;16.106;2023-02-28T01:14:13;103199.96;;;4.44;53.43
77537;BME280;67783;51.656;16.106;2023-02-28T01:17:18;103203.49;;;4.43;52.62
77537;BME280;67783;51.656;16.106;2023-02-28T01:20:20;103203.49;;;4.45;53.59
77537;BME280;67783;51.656;16.106;2023-02-28T01:23:23;103205.30;;;4.41;53.46
77537;BME280;67783;51.656;16.106;2023-02-28T01:26:25;103201.76;;;4.42;53.67
77537;BME280;67783;51.656;16.106;2023-02-28T01:29:27;103200.88;;;4.40;53.47
77537;BME280;67783;51.656;16.106;2023-02-28T01:32:38;103202.67;;;4.38;52.91
77537;BME280;67783;51.656;16.106;2023-02-28T01:35:40;103209.72;;;4.39;53.66
77537;BME280;67783;51.656;16.106;2023-02-28T01:38:43;103207.09;;;4.36;53.61
77537;BME280;67783;51.656;16.106;2023-02-28T01:41:44;103198.26;;;4.37;53.91
77537;BME280;67783;51.656;16.106;2023-02-28T01:48:03;103195.62;;;4.34;53.13
77537;BME280;67783;51.656;16.106;2023-02-28T01:51:12;103195.59;;;4.36;53.80
77537;BME280;67783;51.656;16.106;2023-02-28T01:54:19;103200.94;;;4.34;53.73
77537;BME280;67783;51.656;16.106;2023-02-28T01:57:30;103174.54;;;4.13;53.22
77537;BME280;67783;51.656;16.106;2023-02-28T02:00:38;103193.03;;;4.25;53.92
77537;BME280;67783;51.656;16.106;2023-02-28T02:03:43;103195.72;;;4.22;53.92
77537;BME280;67783;51.656;16.106;2023-02-28T02:06:52;103186.88;;;4.15;53.53
77537;BME280;67783;51.656;16.106;2023-02-28T02:10:47;103178.92;;;4.17;54.12
77537;BME280;67783;51.656;16.106;2023-02-28T02:13:19;103183.38;;;4.12;54.12
77537;BME280;67783;51.656;16.106;2023-02-28T02:19:46;103180.75;;;4.09;54.28
77537;BME280;67783;51.656;16.106;2023-02-28T02:32:48;103171.09;;;3.94;54.59
77537;BME280;67783;51.656;16.106;2023-02-28T02:36:03;103164.93;;;3.92;54.70
77537;BME280;67783;51.656;16.106;2023-02-28T02:45:52;103139.44;;;3.68;54.83
77537;BME280;67783;51.656;16.106;2023-02-28T02:48:57;103169.38;;;3.86;54.95
77537;BME280;67783;51.656;16.106;2023-02-28T02:52:07;103169.40;;;3.83;55.28
77537;BME280;67783;51.656;16.106;2023-02-28T02:55:14;103164.98;;;3.82;55.12
77537;BME280;67783;51.656;16.106;2023-02-28T02:58:19;103164.13;;;3.77;55.35
77537;BME280;67783;51.656;16.106;2023-02-28T03:01:29;103174.77;;;3.70;55.95
77537;BME280;67783;51.656;16.106;2023-02-28T03:04:38;103177.41;;;3.70;55.59
77537;BME280;67783;51.656;16.106;2023-02-28T03:07:41;103180.10;;;3.67;55.64
77537;BME280;67783;51.656;16.106;2023-02-28T03:11:00;103173.91;;;3.65;56.14
77537;BME280;67783;51.656;16.106;2023-02-28T03:20:45;103183.62;;;3.71;55.94
77537;BME280;67783;51.656;16.106;2023-02-28T03:27:19;103195.10;;;3.71;55.83
77537;BME280;67783;51.656;16.106;2023-02-28T03:33:47;103169.57;;;3.49;56.13
77537;BME280;67783;51.656;16.106;2023-02-28T03:37:08;103188.97;;;3.63;56.37
77537;BME280;67783;51.656;16.106;2023-02-28T03:40:23;103187.17;;;3.65;55.99
77537;BME280;67783;51.656;16.106;2023-02-28T03:43:29;103187.20;;;3.62;56.10
77537;BME280;67783;51.656;16.106;2023-02-28T03:46:38;103187.22;;;3.59;56.39
77537;BME280;67783;51.656;16.106;2023-02-28T03:49:51;103191.63;;;3.57;56.31
77537;BME280;67783;51.656;16.106;2023-02-28T03:53:01;103193.42;;;3.54;56.30
77537;BME280;67783;51.656;16.106;2023-02-28T03:56:13;103188.99;;;3.53;56.57
77537;BME280;67783;51.656;16.106;2023-02-28T03:59:26;103196.05;;;3.58;56.25
77537;BME280;67783;51.656;16.106;2023-02-28T04:02:29;103199.59;;;3.63;56.33
77537;BME280;67783;51.656;16.106;2023-02-28T04:08:47;103204.86;;;3.65;56.30
77537;BME280;67783;51.656;16.106;2023-02-28T04:11:51;103208.41;;;3.68;56.44
77537;BME280;67783;51.656;16.106;2023-02-28T04:15:01;103209.24;;;3.73;56.82
77537;BME280;67783;51.656;16.106;2023-02-28T04:18:03;103207.46;;;3.80;56.30
77537;BME280;67783;51.656;16.106;2023-02-28T04:21:05;103212.73;;;3.83;56.61
77537;BME280;67783;51.656;16.106;2023-02-28T04:24:10;103213.58;;;3.90;56.29
77537;BME280;67783;51.656;16.106;2023-02-28T04:27:15;103209.18;;;3.89;56.35
77537;BME280;67783;51.656;16.106;2023-02-28T04:30:22;103212.72;;;3.88;56.99
77537;BME280;67783;51.656;16.106;2023-02-28T04:33:24;103217.14;;;3.89;56.50
77537;BME280;67783;51.656;16.106;2023-02-28T04:36:26;103221.61;;;3.81;56.72
77537;BME280;67783;51.656;16.106;2023-02-28T04:39:29;103217.19;;;3.80;56.50
77537;BME280;67783;51.656;16.106;2023-02-28T04:42:30;103218.97;;;3.75;56.81
77537;BME280;67783;51.656;16.106;2023-02-28T04:45:42;103220.77;;;3.66;57.56
77537;BME280;67783;51.656;16.106;2023-02-28T04:48:44;103219.02;;;3.62;56.83
77537;BME280;67783;51.656;16.106;2023-02-28T04:51:46;103224.33;;;3.56;57.24
77537;BME280;67783;51.656;16.106;2023-02-28T04:54:50;103225.24;;;3.54;56.98
77537;BME280;67783;51.656;16.106;2023-02-28T04:57:52;103236.74;;;3.50;57.24
77537;BME280;67783;51.656;16.106;2023-02-28T05:01:06;103228.78;;;3.48;58.05
77537;BME280;67783;51.656;16.106;2023-02-28T05:04:16;103229.69;;;3.46;57.25
77537;BME280;67783;51.656;16.106;2023-02-28T05:07:18;103222.63;;;3.43;57.47
77537;BME280;67783;51.656;16.106;2023-02-28T05:10:30;103227.93;;;3.40;58.30
77537;BME280;67783;51.656;16.106;2023-02-28T05:13:32;103236.77;;;3.42;57.44
77537;BME280;67783;51.656;16.106;2023-02-28T05:16:33;103235.01;;;3.43;57.96
77537;BME280;67783;51.656;16.106;2023-02-28T05:19:35;103233.23;;;3.46;57.42
77537;BME280;67783;51.656;16.106;2023-02-28T05:22:37;103233.24;;;3.43;57.71
77537;BME280;67783;51.656;16.106;2023-02-28T05:25:40;103234.98;;;3.46;57.44
77537;BME280;67783;51.656;16.106;2023-02-28T05:28:42;103240.27;;;3.50;57.56
77537;BME280;67783;51.656;16.106;2023-02-28T05:31:47;103240.27;;;3.49;58.30
77537;BME280;67783;51.656;16.106;2023-02-28T05:34:49;103243.84;;;3.48;57.59
77537;BME280;67783;51.656;16.106;2023-02-28T05:37:51;103247.35;;;3.44;57.79
77537;BME280;67783;51.656;16.106;2023-02-28T05:40:53;103260.61;;;3.44;57.79
77537;BME280;67783;51.656;16.106;2023-02-28T05:43:55;103256.23;;;3.35;58.11
77537;BME280;67783;51.656;16.106;2023-02-28T05:47:07;103266.86;;;3.26;59.15
77537;BME280;67783;51.656;16.106;2023-02-28T05:50:10;103254.48;;;3.25;58.05
77537;BME280;67783;51.656;16.106;2023-02-28T05:53:12;103259.79;;;3.22;58.54
77537;BME280;67783;51.656;16.106;2023-02-28T05:56:13;103263.33;;;3.18;58.12
77537;BME280;67783;51.656;16.106;2023-02-28T05:59:15;103268.64;;;3.18;58.35
77537;BME280;67783;51.656;16.106;2023-02-28T06:02:17;103260.67;;;3.19;58.12
77537;BME280;67783;51.656;16.106;2023-02-28T06:05:19;103268.62;;;3.15;58.30
77537;BME280;67783;51.656;16.106;2023-02-28T06:08:24;103269.53;;;3.14;59.43
77537;BME280;67783;51.656;16.106;2023-02-28T06:11:27;103273.91;;;3.19;58.28
77537;BME280;67783;51.656;16.106;2023-02-28T06:14:28;103281.86;;;3.24;58.55
77537;BME280;67783;51.656;16.106;2023-02-28T06:17:32;103277.45;;;3.29;58.10
77537;BME280;67783;51.656;16.106;2023-02-28T06:20:34;103287.15;;;3.32;58.29
77537;BME280;67783;51.656;16.106;2023-02-28T06:23:45;103288.93;;;3.33;59.21
77537;BME280;67783;51.656;16.106;2023-02-28T06:26:47;103281.85;;;3.36;58.17
77537;BME280;67783;51.656;16.106;2023-02-28T06:29:49;103281.86;;;3.29;58.84
77537;BME280;67783;51.656;16.106;2023-02-28T06:32:54;103288.05;;;3.24;58.47
77537;BME280;67783;51.656;16.106;2023-02-28T06:35:56;103291.59;;;3.19;58.72
77537;BME280;67783;51.656;16.106;2023-02-28T06:39:07;103280.10;;;3.15;59.64
77537;BME280;67783;51.656;16.106;2023-02-28T06:42:09;103289.84;;;3.18;58.56
77537;BME280;67783;51.656;16.106;2023-02-28T06:45:11;103291.60;;;3.13;58.88
77537;BME280;67783;51.656;16.106;2023-02-28T06:48:13;103301.32;;;3.11;58.63
77537;BME280;67783;51.656;16.106;2023-02-28T06:51:18;103308.41;;;3.06;59.15
77537;BME280;67783;51.656;16.106;2023-02-28T06:54:26;103306.64;;;2.97;59.95
77537;BME280;67783;51.656;16.106;2023-02-28T06:57:30;103303.10;;;2.97;59.13
77537;BME280;67783;51.656;16.106;2023-02-28T07:00:32;103304.87;;;2.93;59.61
77537;BME280;67783;51.656;16.106;2023-02-28T07:03:37;103318.12;;;2.98;59.04
77537;BME280;67783;51.656;16.106;2023-02-28T07:06:39;103314.58;;;2.93;59.45
77537;BME280;67783;51.656;16.106;2023-02-28T07:09:47;103311.91;;;2.94;60.05
77537;BME280;67783;51.656;16.106;2023-02-28T07:12:49;103317.21;;;3.03;58.98
77537;BME280;67783;51.656;16.106;2023-02-28T07:15:56;103315.45;;;3.11;59.23
77537;BME280;67783;51.656;16.106;2023-02-28T07:18:58;103311.93;;;3.18;58.84
77537;BME280;67783;51.656;16.106;2023-02-28T07:22:00;103316.34;;;3.21;58.86
77537;BME280;67783;51.656;16.106;2023-02-28T07:25:08;103320.77;;;3.22;59.24
77537;BME280;67783;51.656;16.106;2023-02-28T07:28:11;103319.88;;;3.26;58.71
77537;BME280;67783;51.656;16.106;2023-02-28T07:31:14;103319.01;;;3.27;59.05
77537;BME280;67783;51.656;16.106;2023-02-28T07:34:16;103318.12;;;3.31;58.70
77537;BME280;67783;51.656;16.106;2023-02-28T07:37:18;103319.86;;;3.34;58.66
77537;BME280;67783;51.656;16.106;2023-02-28T07:40:30;103326.02;;;3.40;58.81
77537;BME280;67783;51.656;16.106;2023-02-28T07:43:33;103327.78;;;3.44;58.16
77537;BME280;67783;51.656;16.106;2023-02-28T07:46:34;103332.21;;;3.41;58.06
77537;BME280;67783;51.656;16.106;2023-02-28T07:49:37;103328.69;;;3.46;58.03
77537;BME280;67783;51.656;16.106;2023-02-28T07:52:40;103335.73;;;3.53;57.82
77537;BME280;67783;51.656;16.106;2023-02-28T07:55:50;103326.02;;;3.55;57.00
77537;BME280;67783;51.656;16.106;2023-02-28T07:58:51;103313.60;;;3.60;57.33
77537;BME280;67783;51.656;16.106;2023-02-28T08:01:53;103322.45;;;3.65;57.10
77537;BME280;67783;51.656;16.106;2023-02-28T08:04:55;103311.81;;;3.81;57.17
77537;BME280;67783;51.656;16.106;2023-02-28T08:07:57;103318.84;;;3.91;56.58
77537;BME280;67783;51.656;16.106;2023-02-28T08:11:01;103318.79;;;4.03;56.30
77537;BME280;67783;51.656;16.106;2023-02-28T08:14:03;103314.34;;;4.08;56.08
77537;BME280;67783;51.656;16.106;2023-02-28T08:17:09;103316.98;;;4.12;54.41
77537;BME280;67783;51.656;16.106;2023-02-28T08:20:12;103317.84;;;4.22;55.83
77537;BME280;67783;51.656;16.106;2023-02-28T08:23:15;103317.77;;;4.33;55.19
77537;BME280;67783;51.656;16.106;2023-02-28T08:26:17;103318.60;;;4.42;54.94
77537;BME280;67783;51.656;16.106;2023-02-28T08:29:19;103311.48;;;4.49;54.86
77537;BME280;67783;51.656;16.106;2023-02-28T08:32:29;103315.87;;;4.51;51.88
77537;BME280;67783;51.656;16.106;2023-02-28T08:35:31;103319.40;;;4.56;53.13
77537;BME280;67783;51.656;16.106;2023-02-28T08:38:33;103314.06;;;4.62;52.93
77537;BME280;67783;51.656;16.106;2023-02-28T08:41:35;103322.77;;;4.83;53.77
77537;BME280;67783;51.656;16.106;2023-02-28T08:44:37;103315.69;;;4.83;52.00
77537;BME280;67783;51.656;16.106;2023-02-28T08:47:50;103322.67;;;4.93;50.47
77537;BME280;67783;51.656;16.106;2023-02-28T08:51:00;103326.16;;;5.03;52.69
77537;BME280;67783;51.656;16.106;2023-02-28T08:54:03;103316.37;;;5.08;50.50
77537;BME280;67783;51.656;16.106;2023-02-28T08:57:04;103317.15;;;5.21;52.18
77537;BME280;67783;51.656;16.106;2023-02-28T09:00:07;103321.39;;;5.38;51.23
77537;BME280;67783;51.656;16.106;2023-02-28T09:03:11;103318.66;;;5.47;46.36
77537;BME280;67783;51.656;16.106;2023-02-28T09:06:14;103315.89;;;5.58;50.42
77537;BME280;67783;51.656;16.106;2023-02-28T09:09:17;103322.02;;;5.65;48.59
77537;BME280;67783;51.656;16.106;2023-02-28T09:12:20;103317.53;;;5.71;49.83
77537;BME280;67783;51.656;16.106;2023-02-28T09:15:22;103321.84;;;5.80;49.12
77537;BME280;67783;51.656;16.106;2023-02-28T09:18:34;103314.63;;;5.92;45.88
77537;BME280;67783;51.656;16.106;2023-02-28T09:21:38;103312.68;;;6.08;49.24
77537;BME280;67783;51.656;16.106;2023-02-28T09:24:40;103317.88;;;6.17;48.57
77537;BME280;67783;51.656;16.106;2023-02-28T09:27:42;103314.27;;;6.21;47.80
77537;BME280;67783;51.656;16.106;2023-02-28T09:30:46;103317.92;;;6.14;48.40
77537;BME280;67783;51.656;16.106;2023-02-28T09:33:54;103319.69;;;6.15;43.81
77537;BME280;67783;51.656;16.106;2023-02-28T09:36:56;103319.47;;;6.30;48.55
77537;BME280;67783;51.656;16.106;2023-02-28T09:39:58;103315.80;;;6.40;46.14
77537;BME280;67783;51.656;16.106;2023-02-28T09:43:00;103310.17;;;6.62;48.10
77537;BME280;67783;51.656;16.106;2023-02-28T09:49:17;103307.74;;;7.02;43.35
77537;BME280;67783;51.656;16.106;2023-02-28T09:52:29;103307.38;;;7.24;47.30
77537;BME280;67783;51.656;16.106;2023-02-28T09:55:45;103312.41;;;7.41;46.52
77537;BME280;67783;51.656;16.106;2023-02-28T09:58:53;103310.48;;;7.49;44.06
77537;BME280;67783;51.656;16.106;2023-02-28T10:05:15;103273.30;;;7.38;44.87
77537;BME280;67783;51.656;16.106;2023-02-28T10:11:33;103307.09;;;7.85;46.09
77537;BME280;67783;51.656;16.106;2023-02-28T10:14:38;103306.94;;;7.93;45.51
77537;BME280;67783;51.656;16.106;2023-02-28T10:17:45;103302.32;;;8.01;40.89
77537;BME280;67783;51.656;16.106;2023-02-28T10:20:49;103306.49;;;8.14;45.67
77537;BME280;67783;51.656;16.106;2023-02-28T10:27:16;103300.30;;;8.12;41.23
77537;BME280;67783;51.656;16.106;2023-02-28T10:30:19;103301.94;;;8.19;45.28
77537;BME280;67783;51.656;16.106;2023-02-28T10:33:30;103304.56;;;8.21;44.70
77537;BME280;67783;51.656;16.106;2023-02-28T10:36:35;103300.87;;;8.28;40.73
77537;BME280;67783;51.656;16.106;2023-02-28T10:46:13;103286.66;;;8.24;41.35
77537;BME280;67783;51.656;16.106;2023-02-28T10:49:23;103291.03;;;8.28;45.01
77537;BME280;67783;51.656;16.106;2023-02-28T10:52:33;103283.90;;;8.30;43.58
77537;BME280;67783;51.656;16.106;2023-02-28T10:55:35;103266.34;;;8.17;42.67
77537;BME280;67783;51.656;16.106;2023-02-28T11:01:56;103293.60;;;8.34;44.26
77537;BME280;67783;51.656;16.106;2023-02-28T11:05:00;103282.07;;;8.32;41.00
77537;BME280;67783;51.656;16.106;2023-02-28T11:08:12;103290.08;;;8.32;43.68
77537;BME280;67783;51.656;16.106;2023-02-28T11:11:16;103283.59;;;8.03;43.15
77537;BME280;67783;51.656;16.106;2023-02-28T11:14:32;103289.23;;;7.87;42.20
77537;BME280;67783;51.656;16.106;2023-02-28T11:17:35;103293.58;;;7.93;44.88
77537;BME280;67783;51.656;16.106;2023-02-28T11:20:38;103293.75;;;7.85;43.85
77537;BME280;67783;51.656;16.106;2023-02-28T11:23:42;103283.16;;;7.79;44.93
77537;BME280;67783;51.656;16.106;2023-02-28T11:26:47;103281.77;;;7.62;44.42
77537;BME280;67783;51.656;16.106;2023-02-28T11:29:52;103273.96;;;7.50;42.52
77537;BME280;67783;51.656;16.106;2023-02-28T11:32:54;103272.50;;;7.33;44.64
77537;BME280;67783;51.656;16.106;2023-02-28T11:36:00;103281.75;;;7.14;43.72
77537;BME280;67783;51.656;16.106;2023-02-28T11:39:10;103278.34;;;7.06;44.81
77537;BME280;67783;51.656;16.106;2023-02-28T11:45:42;103265.06;;;7.03;44.51
77537;BME280;67783;51.656;16.106;2023-02-28T11:52:15;103266.11;;;7.42;44.88
77537;BME280;67783;51.656;16.106;2023-02-28T11:58:45;103269.66;;;7.42;43.35
77537;BME280;67783;51.656;16.106;2023-02-28T12:08:22;103260.11;;;7.31;43.02
77537;BME280;67783;51.656;16.106;2023-02-28T12:18:18;103252.34;;;7.63;44.39
77537;BME280;67783;51.656;16.106;2023-02-28T12:27:14;103234.38;;;7.73;44.25
77537;BME280;67783;51.656;16.106;2023-02-28T12:30:23;103239.72;;;7.71;43.13
77537;BME280;67783;51.656;16.106;2023-02-28T12:33:41;103246.77;;;7.75;42.05
77537;BME280;67783;51.656;16.106;2023-02-28T12:36:45;103236.85;;;7.82;44.49
77537;BME280;67783;51.656;16.106;2023-02-28T12:39:54;103236.79;;;7.85;43.89
77537;BME280;67783;51.656;16.106;2023-02-28T12:43:05;103235.83;;;7.87;41.96
77537;BME280;67783;51.656;16.106;2023-02-28T13:11:50;103207.49;;;7.37;41.94
77537;BME280;67783;51.656;16.106;2023-02-28T13:15:18;103203.03;;;7.39;43.29
77537;BME280;67783;51.656;16.106;2023-02-28T13:18:37;103203.26;;;7.27;43.23
77537;BME280;67783;51.656;16.106;2023-02-28T13:21:29;103206.96;;;7.20;42.63
77537;BME280;67783;51.656;16.106;2023-02-28T13:27:49;103192.41;;;7.36;43.57
77537;BME280;67783;51.656;16.106;2023-02-28T13:31:04;103190.48;;;7.43;42.95
77537;BME280;67783;51.656;16.106;2023-02-28T13:34:15;103194.02;;;7.45;42.96
77537;BME280;67783;51.656;16.106;2023-02-28T13:40:33;103187.55;;;7.57;42.94
77537;BME280;67783;51.656;16.106;2023-02-28T13:50:30;103182.57;;;7.81;42.44
77537;BME280;67783;51.656;16.106;2023-02-28T13:53:46;103183.16;;;7.94;40.42
77537;BME280;67783;51.656;16.106;2023-02-28T13:56:56;103185.79;;;7.96;42.67
77537;BME280;67783;51.656;16.106;2023-02-28T14:03:30;103174.63;;;8.17;42.25
77537;BME280;67783;51.656;16.106;2023-02-28T14:06:38;103177.06;;;8.27;40.22
77537;BME280;67783;51.656;16.106;2023-02-28T14:09:46;103174.43;;;8.24;42.28
77537;BME280;67783;51.656;16.106;2023-02-28T14:13:00;103169.46;;;8.09;42.05
77537;BME280;67783;51.656;16.106;2023-02-28T14:16:05;103168.68;;;8.04;40.41
77537;BME280;67783;51.656;16.106;2023-02-28T14:25:47;103167.84;;;8.02;41.84
77537;BME280;67783;51.656;16.106;2023-02-28T14:29:07;103161.70;;;7.99;43.42
77537;BME280;67783;51.656;16.106;2023-02-28T14:38:47;103152.33;;;7.79;42.14
77537;BME280;67783;51.656;16.106;2023-02-28T14:41:51;103148.76;;;7.80;43.63
77537;BME280;67783;51.656;16.106;2023-02-28T14:44:54;103142.54;;;7.80;43.41
77537;BME280;67783;51.656;16.106;2023-02-28T14:48:09;103147.98;;;7.75;41.61
77537;BME280;67783;51.656;16.106;2023-02-28T14:51:13;103155.38;;;7.63;43.50
77537;BME280;67783;51.656;16.106;2023-02-28T14:54:21;103153.95;;;7.47;43.34
77537;BME280;67783;51.656;16.106;2023-02-28T14:57:34;103154.34;;;7.27;42.39
77537;BME280;67783;51.656;16.106;2023-02-28T15:00:42;103152.88;;;7.12;43.38
77537;BME280;67783;51.656;16.106;2023-02-28T15:03:44;103153.15;;;6.97;43.68
77537;BME280;67783;51.656;16.106;2023-02-28T15:16:40;103149.91;;;6.80;44.39
77537;BME280;67783;51.656;16.106;2023-02-28T15:19:46;103146.34;;;6.81;44.77
77537;BME280;67783;51.656;16.106;2023-02-28T15:22:53;103145.55;;;6.76;44.77
77537;BME280;67783;51.656;16.106;2023-02-28T15:25:57;103142.06;;;6.72;44.14
77537;BME280;67783;51.656;16.106;2023-02-28T15:29:02;103140.30;;;6.71;45.16
77537;BME280;67783;51.656;16.106;2023-02-28T15:32:26;103146.63;;;6.66;45.07
77537;BME280;67783;51.656;16.106;2023-02-28T15:35:29;103147.67;;;6.57;44.42
77537;BME280;67783;51.656;16.106;2023-02-28T15:38:35;103160.13;;;6.55;45.40
77537;BME280;67783;51.656;16.106;2023-02-28T15:41:38;103156.77;;;6.44;45.50
77537;BME280;67783;51.656;16.106;2023-02-28T15:44:49;103150.70;;;6.36;45.29
77537;BME280;67783;51.656;16.106;2023-02-28T15:47:52;103155.20;;;6.31;45.94
77537;BME280;67783;51.656;16.106;2023-02-28T15:50:57;103148.29;;;6.21;46.03
77537;BME280;67783;51.656;16.106;2023-02-28T15:54:17;103147.46;;;6.16;46.21
77537;BME280;67783;51.656;16.106;2023-02-28T15:57:23;103141.47;;;6.01;46.37
77537;BME280;67783;51.656;16.106;2023-02-28T16:00:35;103135.37;;;5.93;46.53
77537;BME280;67783;51.656;16.106;2023-02-28T16:03:44;103139.86;;;5.91;46.66
77537;BME280;67783;51.656;16.106;2023-02-28T16:09:59;103140.95;;;5.75;47.13
77537;BME280;67783;51.656;16.106;2023-02-28T16:13:05;103134.75;;;5.72;47.16
77537;BME280;67783;51.656;16.106;2023-02-28T16:16:08;103130.43;;;5.65;47.39
77537;BME280;67783;51.656;16.106;2023-02-28T16:19:18;103134.98;;;5.56;47.95
77537;BME280;67783;51.656;16.106;2023-02-28T16:22:21;103136.85;;;5.50;47.63
77537;BME280;67783;51.656;16.106;2023-02-28T16:28:45;103142.38;;;5.32;48.17
77537;BME280;67783;51.656;16.106;2023-02-28T16:31:46;103146.88;;;5.27;47.90
77537;BME280;67783;51.656;16.106;2023-02-28T16:34:49;103150.57;;;5.13;48.27
77537;BME280;67783;51.656;16.106;2023-02-28T16:37:51;103148.00;;;5.07;48.11
77537;BME280;67783;51.656;16.106;2023-02-28T16:40:56;103152.52;;;4.98;48.27
77537;BME280;67783;51.656;16.106;2023-02-28T16:44:11;103157.92;;;4.92;48.59
77537;BME280;67783;51.656;16.106;2023-02-28T16:47:13;103152.61;;;4.89;48.35
77537;BME280;67783;51.656;16.106;2023-02-28T16:50:19;103157.12;;;4.82;48.50
77537;BME280;67783;51.656;16.106;2023-02-28T16:53:21;103153.63;;;4.79;48.49
77537;BME280;67783;51.656;16.106;2023-02-28T16:56:23;103160.74;;;4.72;48.64
77537;BME280;67783;51.656;16.106;2023-02-28T16:59:28;103169.68;;;4.67;49.20
77537;BME280;67783;51.656;16.106;2023-02-28T17:02:30;103166.17;;;4.63;48.83
77537;BME280;67783;51.656;16.106;2023-02-28T17:05:40;103176.84;;;4.57;49.15
77537;BME280;67783;51.656;16.106;2023-02-28T17:08:42;103142.52;;;4.31;48.96
77537;BME280;67783;51.656;16.106;2023-02-28T17:11:44;103179.59;;;4.46;49.17
77537;BME280;67783;51.656;16.106;2023-02-28T17:14:49;103184.05;;;4.41;49.93
77537;BME280;67783;51.656;16.106;2023-02-28T17:17:50;103188.48;;;4.39;49.32
77537;BME280;67783;51.656;16.106;2023-02-28T17:20:52;103192.08;;;4.32;49.86
77537;BME280;67783;51.656;16.106;2023-02-28T17:23:54;103203.61;;;4.27;49.60
77537;BME280;67783;51.656;16.106;2023-02-28T17:26:57;103189.52;;;4.22;49.76
77537;BME280;67783;51.656;16.106;2023-02-28T17:30:16;103195.74;;;4.16;50.51
77537;BME280;67783;51.656;16.106;2023-02-28T17:33:18;103193.14;;;4.07;49.97
77537;BME280;67783;51.656;16.106;2023-02-28T17:36:25;103195.84;;;3.98;50.27
77537;BME280;67783;51.656;16.106;2023-02-28T17:39:36;103198.55;;;3.92;51.06
77537;BME280;67783;51.656;16.106;2023-02-28T17:42:38;103196.80;;;3.88;50.34
77537;BME280;67783;51.656;16.106;2023-02-28T17:45:40;103195.94;;;3.83;50.95
77537;BME280;67783;51.656;16.106;2023-02-28T17:48:42;103195.94;;;3.81;50.52
77537;BME280;67783;51.656;16.106;2023-02-28T17:51:45;103197.72;;;3.78;50.75
77537;BME280;67783;51.656;16.106;2023-02-28T17:54:57;103195.98;;;3.75;51.51
77537;BME280;67783;51.656;16.106;2023-02-28T17:57:59;103185.37;;;3.77;50.65
77537;BME280;67783;51.656;16.106;2023-02-28T18:01:01;103190.66;;;3.73;50.97
77537;BME280;67783;51.656;16.106;2023-02-28T18:04:03;103186.26;;;3.74;50.65
77537;BME280;67783;51.656;16.106;2023-02-28T18:07:06;103170.36;;;3.65;51.29
77537;BME280;67783;51.656;16.106;2023-02-28T18:10:19;103182.75;;;3.66;51.89
77537;BME280;67783;51.656;16.106;2023-02-28T18:13:21;103183.64;;;3.66;50.91
77537;BME280;67783;51.656;16.106;2023-02-28T18:16:24;103184.55;;;3.62;51.36
77537;BME280;67783;51.656;16.106;2023-02-28T18:19:27;103173.94;;;3.62;51.06
77537;BME280;67783;51.656;16.106;2023-02-28T18:22:29;103178.34;;;3.60;51.33
77537;BME280;67783;51.656;16.106;2023-02-28T18:25:39;103178.37;;;3.57;52.10
77537;BME280;67783;51.656;16.106;2023-02-28T18:28:42;103173.06;;;3.57;51.22
77537;BME280;67783;51.656;16.106;2023-02-28T18:31:45;103173.09;;;3.54;51.54
77537;BME280;67783;51.656;16.106;2023-02-28T18:34:46;103171.33;;;3.55;51.26
77537;BME280;67783;51.656;16.106;2023-02-28T18:37:48;103176.61;;;3.53;51.51
77537;BME280;67783;51.656;16.106;2023-02-28T18:41:02;103175.74;;;3.48;52.55
77537;BME280;67783;51.656;16.106;2023-02-28T18:44:05;103176.66;;;3.47;51.51
77537;BME280;67783;51.656;16.106;2023-02-28T18:47:07;103176.69;;;3.43;51.94
77537;BME280;67783;51.656;16.106;2023-02-28T18:50:10;103178.45;;;3.42;51.67
77537;BME280;67783;51.656;16.106;2023-02-28T18:53:13;103181.99;;;3.38;51.95